createdAt,value
2023-01-19T00:00:44.662Z,27.50
2023-01-19T00:06:08.377Z,29.50
2023-01-19T00:11:12.826Z,28.80
2023-01-19T00:16:20.046Z,27.00
2023-01-19T00:21:23.516Z,27.90
2023-01-19T00:26:26.528Z,23.90
2023-01-19T00:31:30.248Z,24.20
2023-01-19T00:36:33.996Z,24.90
2023-01-19T00:41:55.512Z,25.30
2023-01-19T00:46:58.520Z,25.50
2023-01-19T00:52:01.745Z,25.40
2023-01-19T00:57:05.147Z,25.10
2023-01-19T01:02:08.661Z,23.40
2023-01-19T01:07:11.874Z,26.60
2023-01-19T01:12:14.983Z,24.60
2023-01-19T01:17:18.278Z,25.40
2023-01-19T01:22:21.196Z,26.00
2023-01-19T01:27:24.107Z,25.30
2023-01-19T01:32:27.108Z,23.80
2023-01-19T01:37:30.112Z,26.60
2023-01-19T01:42:34.698Z,23.20
2023-01-19T01:47:47.802Z,23.40
2023-01-19T01:53:14.116Z,24.00
2023-01-19T01:58:17.433Z,23.80
2023-01-19T02:03:23.459Z,24.40
2023-01-19T02:09:37.622Z,25.00
2023-01-19T02:14:40.623Z,24.60
2023-01-19T02:19:44.015Z,26.00
2023-01-19T02:24:47.265Z,24.00
2023-01-19T02:29:50.269Z,25.90
2023-01-19T02:34:53.575Z,24.50
2023-01-19T02:39:59.347Z,24.50
2023-01-19T02:45:06.881Z,24.20
2023-01-19T02:50:29.559Z,25.10
2023-01-19T02:55:34.340Z,25.30
2023-01-19T03:00:48.086Z,24.70
2023-01-19T03:05:57.149Z,24.20
2023-01-19T03:11:08.388Z,23.10
2023-01-19T03:16:34.548Z,25.30
2023-01-19T03:21:40.716Z,24.00
2023-01-19T03:26:49.349Z,26.10
2023-01-19T03:31:54.140Z,25.30
2023-01-19T03:37:02.491Z,24.70
2023-01-19T03:42:09.636Z,24.40
2023-01-19T03:47:15.134Z,23.50
2023-01-19T03:52:18.102Z,23.60
2023-01-19T03:57:21.417Z,25.00
2023-01-19T04:02:25.182Z,23.60
2023-01-19T04:07:28.650Z,22.30
2023-01-19T04:12:31.768Z,24.40
2023-01-19T04:17:34.873Z,25.00
2023-01-19T04:22:39.317Z,24.90
2023-01-19T04:27:42.417Z,24.10
2023-01-19T04:32:45.629Z,26.20
2023-01-19T04:37:48.749Z,26.00
2023-01-19T04:42:51.847Z,26.40
2023-01-19T04:47:54.955Z,31.30
2023-01-19T04:52:58.477Z,32.20
2023-01-19T04:58:01.705Z,27.40
2023-01-19T05:03:05.396Z,27.80
2023-01-19T05:08:08.828Z,32.90
2023-01-19T05:13:11.831Z,29.00
2023-01-19T05:18:14.835Z,26.80
2023-01-19T05:23:18.052Z,27.90
2023-01-19T05:28:21.873Z,27.90
2023-01-19T05:33:25.597Z,26.50
2023-01-19T05:38:35.390Z,25.80
2023-01-19T05:43:38.882Z,48.70
2023-01-19T05:48:41.784Z,21.40
2023-01-19T05:53:44.994Z,24.90
2023-01-19T05:58:48.101Z,30.60
2023-01-19T06:03:51.211Z,26.60
2023-01-19T06:08:54.636Z,26.80
2023-01-19T06:13:57.747Z,26.90
2023-01-19T06:19:00.742Z,26.30
2023-01-19T06:24:04.362Z,20.40
2023-01-19T06:29:07.275Z,21.30
2023-01-19T06:34:10.954Z,27.30
2023-01-19T06:39:13.892Z,18.80
2023-01-19T06:44:17.009Z,21.80
2023-01-19T06:49:20.013Z,23.00
2023-01-19T06:54:23.117Z,26.00
2023-01-19T06:59:26.329Z,21.80
2023-01-19T07:04:29.441Z,21.10
2023-01-19T07:09:32.348Z,19.90
2023-01-19T07:14:35.355Z,21.80
2023-01-19T07:19:38.353Z,22.20
2023-01-19T07:24:41.685Z,24.10
2023-01-19T07:29:44.676Z,23.60
2023-01-19T07:34:47.889Z,22.30
2023-01-19T07:39:50.997Z,23.00
2023-01-19T07:44:54.103Z,21.70
2023-01-19T07:49:57.166Z,21.50
2023-01-19T07:55:00.037Z,21.90
2023-01-19T08:00:05.124Z,24.70
2023-01-19T08:05:08.677Z,24.30
2023-01-19T08:10:13.624Z,24.20
2023-01-19T08:15:16.684Z,24.00
2023-01-19T08:20:19.662Z,25.30
2023-01-19T08:25:23.690Z,28.50
2023-01-19T08:30:27.074Z,26.20
2023-01-19T08:35:43.455Z,24.00
2023-01-19T08:40:46.948Z,24.80
2023-01-19T08:45:53.451Z,25.80
2023-01-19T08:50:57.187Z,25.50
2023-01-19T08:56:01.485Z,24.40
2023-01-19T09:01:05.457Z,27.60
2023-01-19T09:06:10.364Z,27.80
2023-01-19T09:11:15.118Z,27.50
2023-01-19T09:16:18.460Z,30.50
2023-01-19T09:21:21.644Z,28.60
2023-01-19T09:26:24.754Z,29.20
2023-01-19T09:31:27.858Z,30.00
2023-01-19T09:36:31.170Z,31.10
2023-01-19T09:41:36.847Z,33.80
2023-01-19T09:46:44.516Z,31.70
2023-01-19T09:51:50.646Z,28.20
2023-01-19T09:56:54.354Z,29.30
2023-01-19T10:02:33.522Z,29.70
2023-01-19T10:07:54.946Z,30.60
2023-01-19T10:13:19.768Z,26.50
2023-01-19T10:18:48.783Z,27.90
2023-01-19T10:23:54.845Z,25.30
2023-01-19T10:29:03.086Z,26.70
2023-01-19T10:34:06.126Z,26.10
2023-01-19T10:39:13.853Z,25.30
2023-01-19T10:44:25.677Z,23.40
2023-01-19T10:49:39.286Z,21.80
2023-01-19T10:54:43.806Z,23.40
2023-01-19T10:59:51.154Z,21.90
2023-01-19T11:04:57.251Z,21.80
2023-01-19T11:10:25.943Z,21.50
2023-01-19T11:15:35.955Z,22.60
2023-01-19T11:20:51.355Z,23.30
2023-01-19T11:25:58.398Z,22.60
2023-01-19T11:31:10.362Z,23.50
2023-01-19T11:36:39.831Z,22.70
2023-01-19T11:41:43.048Z,24.40
2023-01-19T11:46:51.147Z,23.70
2023-01-19T11:52:07.087Z,24.90
2023-01-19T11:57:13.877Z,22.80
2023-01-19T12:02:45.057Z,24.70
2023-01-19T12:07:50.306Z,22.90
2023-01-19T12:12:54.438Z,22.80
2023-01-19T12:18:00.810Z,23.80
2023-01-19T12:23:03.942Z,22.20
2023-01-19T12:28:12.974Z,23.80
2023-01-19T12:33:33.603Z,23.30
2023-01-19T12:38:55.039Z,24.60
2023-01-19T12:44:10.036Z,23.00
2023-01-19T12:49:37.806Z,24.00
2023-01-19T12:54:50.402Z,23.40
2023-01-19T13:00:02.255Z,23.90
2023-01-19T13:05:25.726Z,23.60
2023-01-19T13:10:59.878Z,23.40
2023-01-19T13:16:30.019Z,24.10
2023-01-19T13:21:47.566Z,22.90
2023-01-19T13:26:50.677Z,24.00
2023-01-19T13:32:02.615Z,25.10
2023-01-19T13:37:06.639Z,23.90
2023-01-19T13:42:28.865Z,22.30
2023-01-19T13:47:39.284Z,24.20
2023-01-19T13:57:49.061Z,21.90
2023-01-19T14:03:10.991Z,18.80
2023-01-19T14:08:15.779Z,19.80
2023-01-19T14:13:20.197Z,23.10
2023-01-19T14:18:31.576Z,21.60
2023-01-19T14:23:51.705Z,20.90
2023-01-19T14:28:54.916Z,20.10
2023-01-19T14:33:58.739Z,21.90
2023-01-19T14:39:03.234Z,20.90
2023-01-19T14:44:20.047Z,20.20
2023-01-19T14:49:34.098Z,19.90
2023-01-19T14:54:43.029Z,18.50
2023-01-19T14:59:49.846Z,20.10
2023-01-19T15:04:55.527Z,19.70
2023-01-19T15:09:59.492Z,19.00
2023-01-19T15:15:02.792Z,20.00
2023-01-19T15:20:13.721Z,23.20
2023-01-19T15:25:19.796Z,21.40
2023-01-19T15:30:29.757Z,21.40
2023-01-19T15:35:32.880Z,23.20
2023-01-19T15:40:35.990Z,20.90
2023-01-19T15:45:55.304Z,22.70
2023-01-19T15:50:58.382Z,22.70
2023-01-19T15:56:01.394Z,22.50
2023-01-19T16:01:04.849Z,20.20
2023-01-19T16:06:08.853Z,21.40
2023-01-19T16:11:14.919Z,21.60
2023-01-19T16:16:20.978Z,22.10
2023-01-19T16:21:24.398Z,21.10
2023-01-19T16:26:27.557Z,19.20
2023-01-19T16:31:30.638Z,18.20
2023-01-19T16:36:35.900Z,20.40
2023-01-19T16:41:39.307Z,19.90
2023-01-19T16:46:44.867Z,20.30
2023-01-19T16:51:49.094Z,21.10
2023-01-19T16:56:53.340Z,21.00
2023-01-19T17:01:57.191Z,21.50
2023-01-19T17:07:00.378Z,22.40
2023-01-19T17:12:04.264Z,19.70
2023-01-19T17:17:09.956Z,20.20
2023-01-19T17:22:14.391Z,21.00
2023-01-19T17:27:17.514Z,23.10
2023-01-19T17:32:20.428Z,20.30
2023-01-19T17:37:23.430Z,20.10
2023-01-19T17:42:26.747Z,23.60
2023-01-19T17:47:29.850Z,18.60
2023-01-19T17:52:33.077Z,21.30
2023-01-19T17:57:36.648Z,21.20
2023-01-19T18:02:40.486Z,22.40
2023-01-19T18:07:43.716Z,19.90
2023-01-19T18:12:46.628Z,22.00
2023-01-19T18:17:49.628Z,20.60
2023-01-19T18:22:52.737Z,21.80
2023-01-19T18:27:55.641Z,15.90
2023-01-19T18:32:58.655Z,20.80
2023-01-19T18:38:01.661Z,19.00
2023-01-19T18:43:04.767Z,21.50
2023-01-19T18:48:08.166Z,20.30
2023-01-19T18:53:11.088Z,21.50
2023-01-19T18:58:14.096Z,20.60
2023-01-19T19:03:17.870Z,20.80
2023-01-19T19:08:20.825Z,20.00
2023-01-19T19:13:23.823Z,20.70
2023-01-19T19:18:26.832Z,20.60
2023-01-19T19:23:29.843Z,18.80
2023-01-19T19:28:33.627Z,19.10
2023-01-19T19:33:38.519Z,19.50
2023-01-19T19:38:43.072Z,18.50
2023-01-19T19:43:46.169Z,19.50
2023-01-19T19:48:49.818Z,21.70
2023-01-19T19:53:55.356Z,20.70
2023-01-19T19:58:59.661Z,14.40
2023-01-19T20:04:08.919Z,12.50
2023-01-19T20:09:14.149Z,20.60
2023-01-19T20:14:17.303Z,19.10
2023-01-19T20:19:20.389Z,21.60
2023-01-19T20:24:23.527Z,16.20
2023-01-19T20:29:26.643Z,15.20
2023-01-19T20:34:33.357Z,13.30
2023-01-19T20:39:37.366Z,18.10
2023-01-19T20:44:40.473Z,19.20
2023-01-19T20:49:43.685Z,15.40
2023-01-19T20:54:46.903Z,13.00
2023-01-19T20:59:50.125Z,12.90
2023-01-19T21:04:54.859Z,13.10
2023-01-19T21:09:58.557Z,15.40
2023-01-19T21:15:02.319Z,17.10
2023-01-19T21:20:06.644Z,15.50
2023-01-19T21:25:10.183Z,16.40
2023-01-19T21:30:13.471Z,15.00
2023-01-19T21:35:16.796Z,16.10
2023-01-19T21:40:19.908Z,15.30
2023-01-19T21:45:23.332Z,14.90
2023-01-19T21:50:26.529Z,15.30
2023-01-19T21:55:30.159Z,18.00
2023-01-19T22:00:33.251Z,19.20
2023-01-19T22:05:37.205Z,20.50
2023-01-19T22:10:40.155Z,19.20
2023-01-19T22:15:43.090Z,16.60
2023-01-19T22:20:46.095Z,20.60
2023-01-19T22:25:49.328Z,21.40
2023-01-19T22:30:52.638Z,17.10
2023-01-19T22:35:55.725Z,22.50
2023-01-19T22:40:58.732Z,18.50
2023-01-19T22:46:02.482Z,18.80
2023-01-19T22:51:06.805Z,19.00
2023-01-19T22:56:11.617Z,19.80
2023-01-19T23:01:22.929Z,18.20
2023-01-19T23:06:28.823Z,20.80
2023-01-19T23:11:43.907Z,17.70
2023-01-19T23:16:47.521Z,19.70
2023-01-19T23:21:53.039Z,21.60
2023-01-19T23:26:55.997Z,22.80
2023-01-19T23:31:59.211Z,20.60
2023-01-19T23:37:02.319Z,17.40
2023-01-19T23:42:06.554Z,20.30
2023-01-19T23:47:09.760Z,18.00
2023-01-19T23:52:12.973Z,19.60
2023-01-19T23:57:15.982Z,20.70
